createdAt,value
2023-05-15T09:57:38.327Z,52.70
2023-05-15T09:58:38.285Z,61.00
2023-05-15T10:00:25.906Z,48.40
2023-05-15T10:01:25.686Z,55.70
2023-05-15T10:02:25.675Z,58.50
2023-05-15T10:03:25.654Z,56.10
2023-05-15T10:04:25.639Z,52.60
2023-05-15T10:05:41.598Z,55.60
2023-05-15T10:11:59.531Z,49.90
2023-05-15T10:12:59.492Z,50.30
2023-05-15T10:13:59.486Z,53.00
2023-05-15T10:14:59.580Z,51.50
2023-05-15T10:15:59.521Z,50.90
2023-05-15T10:16:59.430Z,48.90
2023-05-15T10:17:59.489Z,50.00
2023-05-15T10:18:59.421Z,47.90
2023-05-15T10:19:59.423Z,47.00
2023-05-15T10:20:59.399Z,49.50
2023-05-15T10:21:59.353Z,47.60
2023-05-15T10:22:59.365Z,44.00
2023-05-15T10:24:06.899Z,44.30
2023-05-15T10:24:59.361Z,44.00
2023-05-15T10:25:59.295Z,45.70
2023-05-15T10:26:59.304Z,43.50
2023-05-15T10:27:59.285Z,45.80
2023-05-15T10:28:59.279Z,47.60
2023-05-15T10:29:59.264Z,45.30
2023-05-15T10:30:59.280Z,43.20
2023-05-15T10:31:59.271Z,43.60
2023-05-15T10:32:59.209Z,44.40
2023-05-15T10:33:59.173Z,45.50
2023-05-15T10:34:59.202Z,42.50
2023-05-15T10:35:59.165Z,43.40
2023-05-15T10:36:59.136Z,41.20
2023-05-15T10:37:59.120Z,41.40
2023-05-15T10:38:59.109Z,40.40
2023-05-15T10:39:59.098Z,42.40
2023-05-15T10:41:13.039Z,40.30
2023-05-15T10:41:59.077Z,43.90
2023-05-15T10:42:59.080Z,41.70
2023-05-15T10:43:59.046Z,41.20
2023-05-15T10:44:59.049Z,43.30
2023-05-15T10:45:59.002Z,41.70
2023-05-15T10:46:59.045Z,41.90
2023-05-15T10:47:59.043Z,40.50
2023-05-15T10:48:58.959Z,38.20
2023-05-15T10:49:58.942Z,40.20
2023-05-15T10:50:58.959Z,39.90
2023-05-15T10:51:58.904Z,42.10
2023-05-15T10:52:58.905Z,38.50
2023-05-15T10:53:58.879Z,39.00
2023-05-15T10:54:58.872Z,39.40
2023-05-15T10:55:58.915Z,39.20
2023-05-15T10:56:58.850Z,38.90
2023-05-15T10:57:58.826Z,36.60
2023-05-15T10:58:58.824Z,40.40
2023-05-15T10:59:58.810Z,38.50
2023-05-15T11:00:58.820Z,36.30
2023-05-15T11:01:58.779Z,40.00
2023-05-15T11:02:58.878Z,36.00
2023-05-15T11:03:58.763Z,37.40
2023-05-15T11:04:58.744Z,37.70
2023-05-15T11:05:58.720Z,37.90
2023-05-15T11:06:58.700Z,36.50
2023-05-15T11:07:58.687Z,35.00
2023-05-15T11:08:58.669Z,34.60
2023-05-15T11:09:58.649Z,34.60
2023-05-15T11:10:58.653Z,32.70
2023-05-15T11:11:58.634Z,32.50
2023-05-15T11:12:58.605Z,33.00
2023-05-15T11:13:58.588Z,32.40
2023-05-15T11:14:58.578Z,34.40
2023-05-15T11:15:58.571Z,31.90
2023-05-15T11:16:58.590Z,32.00
2023-05-15T11:17:58.562Z,35.40
2023-05-15T11:18:58.578Z,33.40
2023-05-15T11:19:58.570Z,32.10
2023-05-15T11:20:58.527Z,30.70
2023-05-15T11:21:58.495Z,30.40
2023-05-15T11:22:58.464Z,33.60
2023-05-15T11:23:58.468Z,32.40
2023-05-15T11:24:58.470Z,30.10
2023-05-15T11:25:58.443Z,30.20
2023-05-15T11:26:59.244Z,30.30
2023-05-15T11:27:58.384Z,31.30
2023-05-15T11:28:58.378Z,29.80
2023-05-15T11:29:58.385Z,29.20
2023-05-15T11:30:58.408Z,26.60
2023-05-15T11:31:58.354Z,27.50
2023-05-15T11:32:58.598Z,27.70
2023-05-15T11:33:58.303Z,24.80
2023-05-15T11:34:58.379Z,26.50
2023-05-15T11:35:58.293Z,26.00
2023-05-15T11:36:58.287Z,26.00
2023-05-15T11:37:58.264Z,25.60
2023-05-15T11:38:58.236Z,25.90
2023-05-15T11:39:58.249Z,26.10
2023-05-15T11:40:58.236Z,26.10
2023-05-15T11:41:59.299Z,24.30
2023-05-15T11:42:58.204Z,26.30
2023-05-15T11:43:58.160Z,27.20
2023-05-15T11:44:58.173Z,27.20
2023-05-15T11:45:58.221Z,25.40
2023-05-15T11:46:58.226Z,28.80
2023-05-15T11:47:58.159Z,28.10
2023-05-15T11:48:59.493Z,25.80
2023-05-15T11:49:58.102Z,25.80
2023-05-15T11:50:58.108Z,28.10
2023-05-15T11:51:58.063Z,26.50
2023-05-15T11:52:58.074Z,26.40
2023-05-15T11:53:58.027Z,25.00
2023-05-15T11:54:58.029Z,25.70
2023-05-15T11:55:58.020Z,24.40
2023-05-15T11:56:58.006Z,26.40
2023-05-15T11:57:57.971Z,25.10
2023-05-15T11:58:57.988Z,23.50
2023-05-15T11:59:57.965Z,25.60
2023-05-15T12:00:57.976Z,26.60
2023-05-15T12:01:57.943Z,25.60
2023-05-15T12:02:58.036Z,25.20
2023-05-15T12:03:58.140Z,26.30
2023-05-15T12:04:57.931Z,25.00
2023-05-15T12:06:00.000Z,23.50
2023-05-15T12:06:57.912Z,22.80
2023-05-15T12:07:57.859Z,22.10
2023-05-15T12:08:57.834Z,21.30
2023-05-15T12:09:58.654Z,20.80
2023-05-15T12:10:57.835Z,23.40
2023-05-15T12:11:57.811Z,21.70
2023-05-15T12:12:57.817Z,22.20
2023-05-15T12:13:57.761Z,21.00
2023-05-15T12:14:57.788Z,19.80
2023-05-15T12:15:57.758Z,21.70
2023-05-15T12:16:57.865Z,21.00
2023-05-15T12:17:57.771Z,20.50
2023-05-15T12:18:57.910Z,21.10
2023-05-15T12:19:57.708Z,20.60
2023-05-15T12:20:57.689Z,19.30
2023-05-15T12:21:57.682Z,22.10
2023-05-15T12:22:57.653Z,20.70
2023-05-15T12:24:06.910Z,19.90
2023-05-15T12:24:57.644Z,20.50
2023-05-15T12:25:57.613Z,19.40
2023-05-15T12:26:57.804Z,18.10
2023-05-15T12:27:57.582Z,17.30
2023-05-15T12:28:57.624Z,20.70
2023-05-15T12:29:57.587Z,18.50
2023-05-15T12:30:57.574Z,18.80
2023-05-15T12:31:57.610Z,17.50
2023-05-15T12:32:57.564Z,17.60
2023-05-15T12:33:57.545Z,17.30
2023-05-15T12:34:57.510Z,14.70
2023-05-15T12:36:01.056Z,13.60
2023-05-15T12:36:57.478Z,15.30
2023-05-15T12:37:57.478Z,14.00
2023-05-15T12:38:57.448Z,15.30
2023-05-15T12:39:57.477Z,13.20
2023-05-15T12:40:57.423Z,13.60
2023-05-15T12:41:57.428Z,13.40
2023-05-15T12:42:57.443Z,13.80
2023-05-15T12:43:57.405Z,13.10
2023-05-15T12:44:57.405Z,15.20
2023-05-15T12:45:57.441Z,12.70
2023-05-15T12:46:57.374Z,16.20
2023-05-15T12:47:57.386Z,14.50
2023-05-15T12:48:57.352Z,14.50
2023-05-15T12:49:57.331Z,12.30
2023-05-15T12:50:57.310Z,14.20
2023-05-15T12:51:57.290Z,11.30
2023-05-15T12:52:57.294Z,11.40
2023-05-15T12:53:57.266Z,11.30
2023-05-15T12:54:57.300Z,10.50
2023-05-15T12:55:57.242Z,12.80
2023-05-15T12:56:57.692Z,11.40
2023-05-15T12:57:57.245Z,13.20
2023-05-15T12:58:57.269Z,11.00
2023-05-15T12:59:57.219Z,10.60
2023-05-15T13:00:57.226Z,12.70
2023-05-15T13:01:57.297Z,11.10
2023-05-15T13:02:57.279Z,9.60
2023-05-15T13:03:57.409Z,9.50
2023-05-15T13:04:57.204Z,9.60
2023-05-15T13:05:57.173Z,10.70
2023-05-15T13:06:57.177Z,9.30
2023-05-15T13:07:57.107Z,11.10
2023-05-15T13:08:57.102Z,8.50
2023-05-15T13:09:57.124Z,10.10
2023-05-15T13:10:57.130Z,10.20
2023-05-15T13:12:47.654Z,19.80
2023-05-15T13:13:47.579Z,11.40
2023-05-15T13:14:47.573Z,10.80
2023-05-15T13:15:47.596Z,11.80
2023-05-15T13:16:47.534Z,10.10
2023-05-15T13:17:47.521Z,11.00
2023-05-15T13:18:47.606Z,13.00
2023-05-15T13:19:47.502Z,11.60
2023-05-15T13:20:47.506Z,11.80
2023-05-15T13:21:47.461Z,11.30
2023-05-15T13:22:47.461Z,10.20
2023-05-15T13:23:47.452Z,11.00
2023-05-15T13:24:47.469Z,9.70
2023-05-15T13:25:47.460Z,10.50
2023-05-15T13:26:47.459Z,9.70
2023-05-15T13:27:47.421Z,11.70
2023-05-15T13:28:47.460Z,10.90
2023-05-15T13:29:47.394Z,9.90
2023-05-15T13:30:47.413Z,10.60
2023-05-15T13:31:47.392Z,11.60
2023-05-15T13:32:47.420Z,9.30
2023-05-15T13:33:47.339Z,12.50
2023-05-15T13:34:47.343Z,9.50
2023-05-15T13:35:47.362Z,10.60
2023-05-15T13:36:47.343Z,9.80
2023-05-15T13:37:47.331Z,10.20
2023-05-15T13:38:47.336Z,11.70
2023-05-15T13:39:47.319Z,9.20
2023-05-15T13:40:47.308Z,8.10
2023-05-15T13:41:47.289Z,10.10
2023-05-15T13:42:47.266Z,7.40
2023-05-15T13:43:47.265Z,7.20
2023-05-15T13:44:47.274Z,9.20
2023-05-15T13:45:47.262Z,7.80
2023-05-15T13:46:47.260Z,9.00
2023-05-15T13:47:47.262Z,7.20
2023-05-15T13:48:47.247Z,8.60
2023-05-15T13:49:47.213Z,7.50
2023-05-15T13:50:47.256Z,9.90
2023-05-15T13:51:47.178Z,11.40
2023-05-15T13:52:47.186Z,6.50
2023-05-15T13:53:47.158Z,6.20
2023-05-15T13:54:47.159Z,7.50
2023-05-15T13:57:20.793Z,4.30
2023-05-15T13:58:20.754Z,6.30
2023-05-15T13:59:20.764Z,6.60
2023-05-15T14:00:20.725Z,8.90
2023-05-15T14:01:20.784Z,6.70
2023-05-15T14:02:20.725Z,6.30
2023-05-15T14:03:20.848Z,8.90
2023-05-15T14:04:20.791Z,7.90
2023-05-15T14:09:18.115Z,6.20
2023-05-15T14:10:18.107Z,8.10
2023-05-15T14:11:18.112Z,7.00
2023-05-15T14:13:48.709Z,6.40
2023-05-15T14:18:09.875Z,7.40
2023-05-15T14:19:09.880Z,8.30
2023-05-15T14:20:48.916Z,8.30
2023-05-15T14:21:48.879Z,7.60
2023-05-15T14:22:48.883Z,7.40
2023-05-15T14:23:48.848Z,7.50
2023-05-15T14:24:48.861Z,8.40
2023-05-15T14:26:01.727Z,6.20
2023-05-15T14:27:43.409Z,6.20
2023-05-15T14:30:32.230Z,11.60
2023-05-15T14:31:32.204Z,8.80
2023-05-15T14:32:32.202Z,7.50
2023-05-15T14:33:32.206Z,6.10
2023-05-15T14:38:40.252Z,5.60
2023-05-15T14:39:40.231Z,6.60
2023-05-15T14:40:40.229Z,7.70
2023-05-15T14:41:40.231Z,7.30
2023-05-15T14:42:40.198Z,8.10
2023-05-15T14:43:40.186Z,7.80
2023-05-15T14:44:40.170Z,7.30
2023-05-15T14:45:40.164Z,7.70
2023-05-15T14:46:40.296Z,7.50
2023-05-15T14:47:40.157Z,7.30
2023-05-15T14:48:40.146Z,6.90
2023-05-15T14:49:40.143Z,6.90
2023-05-15T14:50:40.130Z,7.50
2023-05-15T14:51:40.122Z,7.60
2023-05-15T14:52:40.095Z,6.50
2023-05-15T14:53:40.111Z,6.60
2023-05-15T14:54:40.097Z,7.20
2023-05-15T14:55:40.108Z,6.30
2023-05-15T14:56:40.065Z,6.80
2023-05-15T14:57:40.055Z,6.60
2023-05-15T14:58:40.057Z,6.00
2023-05-15T14:59:40.047Z,6.10
2023-05-15T15:00:40.023Z,5.50
2023-05-15T15:01:40.327Z,6.10
2023-05-15T15:02:40.033Z,7.60
2023-05-15T15:03:40.124Z,5.80
2023-05-15T15:04:39.992Z,5.90
2023-05-15T15:05:40.014Z,7.10
2023-05-15T15:06:39.991Z,5.60
2023-05-15T15:07:39.980Z,6.50
2023-05-15T15:08:39.976Z,5.90
2023-05-15T15:09:39.975Z,6.30
2023-05-15T15:10:39.977Z,6.50
2023-05-15T15:11:39.957Z,7.00
2023-05-15T15:12:39.962Z,6.40
2023-05-15T15:13:39.946Z,6.50
2023-05-15T15:14:39.913Z,6.60
2023-05-15T15:15:39.914Z,5.70
2023-05-15T15:18:15.902Z,6.20
2023-05-15T15:19:18.969Z,5.90
2023-05-15T15:20:15.880Z,6.10
2023-05-15T15:21:15.923Z,7.00
2023-05-15T15:22:15.952Z,6.20
2023-05-15T15:23:15.910Z,5.70
2023-05-15T15:24:15.878Z,6.10
2023-05-15T15:41:34.496Z,8.90
2023-05-15T15:47:05.974Z,11.70
2023-05-15T15:48:05.986Z,12.60
2023-05-15T15:50:12.760Z,13.50
2023-05-15T15:51:12.776Z,17.10
2023-05-15T15:52:12.731Z,14.40
2023-05-15T16:00:27.454Z,14.60
2023-05-15T16:01:27.415Z,14.90
2023-05-15T16:02:27.364Z,14.80
2023-05-15T16:05:29.638Z,13.50
2023-05-15T16:09:56.965Z,12.60
2023-05-15T16:10:49.178Z,15.30
2023-05-15T16:11:49.136Z,13.50
2023-05-15T16:13:42.045Z,11.10
2023-05-15T16:20:58.485Z,10.80
2023-05-15T16:21:58.371Z,11.40
2023-05-15T16:22:58.358Z,11.50
2023-05-15T16:27:47.036Z,9.40
2023-05-15T16:28:46.980Z,10.60
2023-05-15T16:29:46.997Z,10.40
2023-05-15T16:30:49.260Z,10.70
2023-05-15T16:31:47.111Z,10.20
2023-05-15T16:33:43.725Z,8.10
2023-05-15T16:34:43.733Z,9.70
2023-05-15T16:35:43.717Z,9.60
2023-05-15T16:36:43.728Z,10.50
2023-05-15T16:37:43.675Z,10.40
2023-05-15T16:38:43.675Z,11.90
2023-05-15T16:39:43.662Z,9.70
2023-05-15T16:40:43.652Z,10.30
2023-05-15T16:41:43.648Z,10.50
2023-05-15T16:43:10.427Z,9.90
2023-05-15T16:44:10.399Z,10.60
2023-05-15T16:45:10.382Z,11.90
2023-05-15T16:46:10.458Z,10.90
2023-05-15T16:47:10.438Z,13.00
2023-05-15T16:48:10.424Z,12.00
2023-05-15T16:49:10.362Z,12.60
2023-05-15T17:02:08.564Z,11.70
2023-05-15T17:04:02.077Z,18.60
2023-05-15T17:05:02.011Z,12.30
2023-05-15T17:06:01.988Z,12.80
2023-05-15T17:15:02.669Z,11.40
